TimeCDT,TemperatureF,Dew PointF,Humidity,Sea Level PressureIn,VisibilityMPH,Wind Direction,Wind SpeedMPH,Gust SpeedMPH,PrecipitationIn,Events,Conditions,WindDirDegrees,DateUTC
12:15 AM,85.5,57.4,38,30.05,10.0,South,5.8,-,N/A,,Clear,180,2013-08-29 05:15:00
12:35 AM,85.5,57.6,39,30.05,10.0,South,6.9,-,N/A,,Clear,180,2013-08-29 05:35:00
12:55 AM,85.1,57.9,40,30.05,10.0,South,6.9,-,N/A,,Clear,180,2013-08-29 05:55:00
1:15 AM,84.4,58.1,41,30.05,10.0,South,6.9,-,N/A,,Clear,180,2013-08-29 06:15:00
1:35 AM,82.8,58.3,43,30.05,10.0,South,5.8,-,N/A,,Clear,180,2013-08-29 06:35:00
1:55 AM,82.8,58.5,43,30.05,10.0,South,8.1,-,N/A,,Clear,170,2013-08-29 06:55:00
2:15 AM,82.0,58.6,45,30.05,10.0,South,6.9,-,N/A,,Clear,180,2013-08-29 07:15:00
2:35 AM,82.4,59.0,45,30.05,10.0,South,6.9,-,N/A,,Clear,190,2013-08-29 07:35:00
2:55 AM,82.6,58.6,44,30.05,10.0,South,6.9,-,N/A,,Clear,190,2013-08-29 07:55:00
3:15 AM,82.4,58.6,44,30.06,10.0,SSW,5.8,-,N/A,,Clear,210,2013-08-29 08:15:00
3:35 AM,81.3,59.2,47,30.06,10.0,SW,5.8,-,N/A,,Clear,220,2013-08-29 08:35:00
3:55 AM,80.4,59.5,49,30.06,10.0,SW,4.6,-,N/A,,Clear,220,2013-08-29 08:55:00
4:15 AM,79.7,59.4,50,30.05,10.0,SW,5.8,-,N/A,,Clear,220,2013-08-29 09:15:00
4:35 AM,79.7,59.4,50,30.06,10.0,SW,5.8,-,N/A,,Clear,230,2013-08-29 09:35:00
4:55 AM,79.7,59.0,49,30.06,10.0,WSW,5.8,-,N/A,,Clear,240,2013-08-29 09:55:00
5:15 AM,79.2,59.0,50,30.06,10.0,WSW,5.8,-,N/A,,Clear,240,2013-08-29 10:15:00
5:35 AM,79.0,59.4,51,30.07,10.0,WSW,5.8,-,N/A,,Clear,240,2013-08-29 10:35:00
5:55 AM,78.8,59.9,52,30.07,10.0,WSW,4.6,-,N/A,,Clear,240,2013-08-29 10:55:00
6:15 AM,78.4,60.3,53,30.07,10.0,WSW,5.8,-,N/A,,Clear,240,2013-08-29 11:15:00
6:35 AM,78.4,60.4,54,30.07,10.0,WSW,5.8,-,N/A,,Clear,240,2013-08-29 11:35:00
6:55 AM,78.3,60.8,55,30.08,10.0,WSW,5.8,-,N/A,,Clear,240,2013-08-29 11:55:00
7:15 AM,78.3,61.0,55,30.08,10.0,WSW,5.8,-,N/A,,Clear,240,2013-08-29 12:15:00
7:35 AM,78.4,61.2,55,30.09,10.0,WSW,5.8,-,N/A,,Clear,240,2013-08-29 12:35:00
7:55 AM,79.0,61.7,55,30.09,10.0,WSW,4.6,-,N/A,,Clear,240,2013-08-29 12:55:00
8:15 AM,79.9,61.7,54,30.09,10.0,WSW,4.6,-,N/A,,Clear,250,2013-08-29 13:15:00
8:35 AM,81.1,61.7,51,30.09,10.0,WSW,6.9,-,N/A,,Clear,240,2013-08-29 13:35:00
8:55 AM,82.0,61.9,50,30.10,10.0,West,6.9,-,N/A,,Clear,260,2013-08-29 13:55:00
9:15 AM,83.8,62.6,49,30.10,10.0,WSW,8.1,-,N/A,,Clear,240,2013-08-29 14:15:00
9:35 AM,84.9,62.4,47,30.11,10.0,West,5.8,-,N/A,,Clear,260,2013-08-29 14:35:00
9:55 AM,86.5,62.2,44,30.11,10.0,WSW,8.1,-,N/A,,Clear,250,2013-08-29 14:55:00
10:15 AM,88.3,61.9,41,30.11,10.0,West,6.9,-,N/A,,Clear,270,2013-08-29 15:15:00
10:35 AM,90.0,61.7,39,30.11,10.0,WSW,8.1,-,N/A,,Clear,240,2013-08-29 15:35:00
10:55 AM,91.4,61.2,36,30.11,10.0,WSW,8.1,-,N/A,,Clear,240,2013-08-29 15:55:00
11:15 AM,92.3,60.1,34,30.10,10.0,WNW,4.6,-,N/A,,Clear,290,2013-08-29 16:15:00
11:35 AM,93.2,59.7,33,30.10,10.0,SW,8.1,-,N/A,,Clear,220,2013-08-29 16:35:00
11:55 AM,92.8,59.0,32,30.09,10.0,SW,11.5,-,N/A,,Clear,220,2013-08-29 16:55:00
12:15 PM,94.3,58.5,30,30.09,10.0,WSW,4.6,-,N/A,,Clear,240,2013-08-29 17:15:00
12:35 PM,94.1,57.9,30,30.08,10.0,WSW,9.2,-,N/A,,Scattered Clouds,250,2013-08-29 17:35:00
12:55 PM,94.6,57.6,29,30.07,10.0,West,3.5,-,N/A,,Scattered Clouds,270,2013-08-29 17:55:00
1:15 PM,96.4,57.9,28,30.07,10.0,South,8.1,-,N/A,,Scattered Clouds,180,2013-08-29 18:15:00
1:35 PM,96.4,57.7,27,30.06,10.0,SSW,8.1,-,N/A,,Clear,200,2013-08-29 18:35:00
1:55 PM,97.5,57.6,26,30.05,10.0,West,4.6,-,N/A,,Clear,270,2013-08-29 18:55:00
2:15 PM,96.1,57.2,27,30.05,10.0,SSE,4.6,-,N/A,,Clear,150,2013-08-29 19:15:00
2:35 PM,96.8,57.4,27,30.04,10.0,South,4.6,-,N/A,,Clear,180,2013-08-29 19:35:00
2:55 PM,97.9,57.7,26,30.03,10.0,SW,8.1,-,N/A,,Clear,220,2013-08-29 19:55:00
3:15 PM,97.7,57.4,26,30.03,10.0,SSW,6.9,-,N/A,,Clear,210,2013-08-29 20:15:00
3:35 PM,96.6,57.0,27,30.02,10.0,Calm,Calm,-,N/A,,Clear,0,2013-08-29 20:35:00
3:55 PM,97.9,57.2,26,30.01,10.0,SSE,9.2,-,N/A,,Clear,150,2013-08-29 20:55:00
4:15 PM,97.3,57.0,26,30.00,10.0,SSW,4.6,-,N/A,,Clear,200,2013-08-29 21:15:00
4:35 PM,98.1,57.2,26,30.00,10.0,Calm,Calm,-,N/A,,Clear,0,2013-08-29 21:35:00
4:55 PM,96.3,56.3,26,29.99,10.0,SSE,3.5,-,N/A,,Clear,150,2013-08-29 21:55:00
5:15 PM,96.4,56.7,26,29.99,10.0,Calm,Calm,-,N/A,,Clear,0,2013-08-29 22:15:00
5:35 PM,96.4,56.1,26,29.99,10.0,SW,4.6,-,N/A,,Clear,220,2013-08-29 22:35:00
5:55 PM,98.1,55.6,24,29.98,10.0,South,5.8,-,N/A,,Clear,170,2013-08-29 22:55:00
6:15 PM,97.5,55.6,24,29.98,10.0,South,4.6,-,N/A,,Clear,180,2013-08-29 23:15:00
6:35 PM,97.2,55.4,25,29.98,10.0,Calm,Calm,-,N/A,,Clear,0,2013-08-29 23:35:00
6:55 PM,97.2,55.0,24,29.98,10.0,SSE,4.6,-,N/A,,Clear,160,2013-08-29 23:55:00
7:15 PM,96.8,55.4,25,29.98,10.0,Calm,Calm,-,N/A,,Clear,0,2013-08-30 00:15:00
7:35 PM,95.9,54.7,25,29.98,10.0,South,4.6,-,N/A,,Clear,180,2013-08-30 00:35:00
7:55 PM,94.3,55.6,27,29.98,10.0,South,4.6,-,N/A,,Clear,170,2013-08-30 00:55:00
8:15 PM,92.3,55.6,29,29.99,10.0,South,3.5,-,N/A,,Clear,170,2013-08-30 01:15:00
8:35 PM,90.0,56.3,32,29.99,10.0,SE,4.6,-,N/A,,Clear,130,2013-08-30 01:35:00
8:55 PM,89.6,56.8,33,29.99,10.0,SE,4.6,-,N/A,,Clear,140,2013-08-30 01:55:00
9:15 PM,89.1,57.2,34,30.00,10.0,SSE,5.8,-,N/A,,Clear,150,2013-08-30 02:15:00
9:35 PM,89.6,57.2,33,30.00,10.0,SSE,5.8,-,N/A,,Clear,150,2013-08-30 02:35:00
9:55 PM,88.7,57.2,34,30.00,10.0,SE,4.6,-,N/A,,Clear,140,2013-08-30 02:55:00
10:15 PM,88.0,56.8,35,30.01,10.0,SE,4.6,-,N/A,,Clear,140,2013-08-30 03:15:00
10:35 PM,85.8,57.4,38,30.01,10.0,SE,4.6,-,N/A,,Clear,140,2013-08-30 03:35:00
10:55 PM,86.9,57.6,37,30.00,10.0,SE,5.8,-,N/A,,Clear,140,2013-08-30 03:55:00
11:15 PM,86.9,58.1,38,30.01,10.0,SSE,5.8,-,N/A,,Clear,150,2013-08-30 04:15:00
11:35 PM,86.4,57.4,37,30.00,10.0,SSE,4.6,-,N/A,,Clear,160,2013-08-30 04:35:00
11:55 PM,86.2,57.4,37,30.00,10.0,SSE,4.6,-,N/A,,Clear,160,2013-08-30 04:55:00